PWSweather.com
Personal Weather Stations
Station Observations
NAGEO265NE
Bedzin GrodziecPL 42-506

Bedzin GrodziecPL 42-506

Lat: 50.347, Lon: 19.079

Elevation: 948

Station Type: WH1080

http://www.meteo-grodziec.pl/

High Low Average
Temperature 40.3°F4.6°C 28.8°F-1.8°C 34.4°F1.3°C
Dew Point 38.5°F3.6°C 25.9°F-3.4°C 32.3°F0.2°C
Winds 3.0 mph 4.8 kmh Calm Calm 1.0 mph WSW1.6 kmh WSW
Wind Gusts 13.0 mph20.9 kmh -- 6.0 mph9.7 kmh
Humidity 97% 82% 92%
Pressure 30.49 in1032.5 mb 30.41 in1029.8 mb -
Precipitation 0.02 in0.5 mm - -
Hour Temp Dew Point Humidity Winds Wind Gusts Pressure Precip Precip Rate Daily Precip Total
12:00 AM 32.4°F0.2°C 27.7°F-2.4°C 83% 1.0 mph NW1.6 kmh NW 6.0 mph9.7 kmh 30.42 in1030.1 mb 0.00 in0.0 mm 0.00 in0.0 mm 0.00 in0.0 mm
12:05 AM 32.4°F0.2°C 27.7°F-2.4°C 83% 2.0 mph NW3.2 kmh NW 7.0 mph11.3 kmh 30.42 in1030.1 mb 0.00 in0.0 mm 0.00 in0.0 mm 0.00 in0.0 mm
12:10 AM 32.4°F0.2°C 27.9°F-2.3°C 83% 2.0 mph NW3.2 kmh NW 8.0 mph12.9 kmh 30.43 in1030.5 mb 0.00 in0.0 mm 0.00 in0.0 mm 0.00 in0.0 mm
12:15 AM 32.4°F0.2°C 27.9°F-2.3°C 83% 2.0 mph NW3.2 kmh NW 8.0 mph12.9 kmh 30.43 in1030.5 mb 0.00 in0.0 mm 0.00 in0.0 mm 0.00 in0.0 mm
12:20 AM 32.4°F0.2°C 27.5°F-2.5°C 82% 2.0 mph NW3.2 kmh NW 7.0 mph11.3 kmh 30.43 in1030.5 mb 0.00 in0.0 mm 0.00 in0.0 mm 0.00 in0.0 mm
12:25 AM 32.4°F0.2°C 27.5°F-2.5°C 82% 2.0 mph NW3.2 kmh NW 8.0 mph12.9 kmh 30.43 in1030.5 mb 0.00 in0.0 mm 0.00 in0.0 mm 0.00 in0.0 mm
12:30 AM 32.4°F0.2°C 27.5°F-2.5°C 82% 1.0 mph NW1.6 kmh NW 8.0 mph12.9 kmh 30.43 in1030.5 mb 0.00 in0.0 mm 0.00 in0.0 mm 0.00 in0.0 mm
12:35 AM 32.4°F0.2°C 27.5°F-2.5°C 82% 1.0 mph NW1.6 kmh NW 7.0 mph11.3 kmh 30.43 in1030.5 mb 0.00 in0.0 mm 0.00 in0.0 mm 0.00 in0.0 mm
12:40 AM 32.2°F0.1°C 27.3°F-2.6°C 82% 1.0 mph NW1.6 kmh NW 7.0 mph11.3 kmh 30.43 in1030.5 mb 0.00 in0.0 mm 0.00 in0.0 mm 0.00 in0.0 mm
12:45 AM 32.2°F0.1°C 27.3°F-2.6°C 82% 1.0 mph NW1.6 kmh NW 4.0 mph6.4 kmh 30.43 in1030.5 mb 0.00 in0.0 mm 0.00 in0.0 mm 0.00 in0.0 mm
12:50 AM 32.2°F0.1°C 27.5°F-2.5°C 83% 1.0 mph NW1.6 kmh NW 6.0 mph9.7 kmh 30.43 in1030.5 mb 0.00 in0.0 mm 0.00 in0.0 mm 0.00 in0.0 mm
12:55 AM 32.0°F0.0°C 27.5°F-2.5°C 83% 1.0 mph NW1.6 kmh NW 6.0 mph9.7 kmh 30.44 in1030.8 mb 0.00 in0.0 mm 0.00 in0.0 mm 0.00 in0.0 mm
01:00 AM 31.8°F-0.1°C 27.1°F-2.7°C 83% 1.0 mph NW1.6 kmh NW 4.0 mph6.4 kmh 30.44 in1030.8 mb 0.00 in0.0 mm 0.00 in0.0 mm 0.00 in0.0 mm
01:05 AM 31.6°F-0.2°C 27.0°F-2.8°C 83% 1.0 mph NW1.6 kmh NW 4.0 mph6.4 kmh 30.44 in1030.8 mb 0.00 in0.0 mm 0.00 in0.0 mm 0.00 in0.0 mm
01:10 AM 31.3°F-0.4°C 26.6°F-3.0°C 83% Calm Calm 3.0 mph4.8 kmh 30.44 in1030.8 mb 0.00 in0.0 mm 0.00 in0.0 mm 0.00 in0.0 mm
01:15 AM 30.9°F-0.6°C 26.6°F-3.0°C 84% Calm Calm 1.0 mph1.6 kmh 30.44 in1030.8 mb 0.00 in0.0 mm 0.00 in0.0 mm 0.00 in0.0 mm
01:20 AM 30.6°F-0.8°C 26.4°F-3.1°C 84% Calm Calm 1.0 mph1.6 kmh 30.44 in1030.8 mb 0.00 in0.0 mm 0.00 in0.0 mm 0.00 in0.0 mm
01:25 AM 30.2°F-1.0°C 25.9°F-3.4°C 84% Calm Calm 1.0 mph1.6 kmh 30.44 in1030.8 mb 0.00 in0.0 mm 0.00 in0.0 mm 0.00 in0.0 mm
01:30 AM 29.8°F-1.2°C 25.9°F-3.4°C 85% Calm Calm 2.0 mph3.2 kmh 30.44 in1030.8 mb 0.00 in0.0 mm 0.00 in0.0 mm 0.00 in0.0 mm
01:35 AM 29.8°F-1.2°C 25.9°F-3.4°C 85% Calm Calm 2.0 mph3.2 kmh 30.44 in1030.8 mb 0.00 in0.0 mm 0.00 in0.0 mm 0.00 in0.0 mm
01:40 AM 29.7°F-1.3°C 26.1°F-3.3°C 86% Calm Calm 2.0 mph3.2 kmh 30.44 in1030.8 mb 0.00 in0.0 mm 0.00 in0.0 mm 0.00 in0.0 mm
01:45 AM 29.7°F-1.3°C 26.1°F-3.3°C 86% Calm Calm 1.0 mph1.6 kmh 30.44 in1030.8 mb 0.00 in0.0 mm 0.00 in0.0 mm 0.00 in0.0 mm
01:50 AM 29.7°F-1.3°C 26.1°F-3.3°C 86% Calm Calm 1.0 mph1.6 kmh 30.44 in1030.8 mb 0.00 in0.0 mm 0.00 in0.0 mm 0.00 in0.0 mm
01:55 AM 29.7°F-1.3°C 25.9°F-3.4°C 86% Calm Calm 1.0 mph1.6 kmh 30.44 in1030.8 mb 0.00 in0.0 mm 0.00 in0.0 mm 0.00 in0.0 mm
02:00 AM 29.7°F-1.3°C 25.9°F-3.4°C 86% Calm Calm 1.0 mph1.6 kmh 30.44 in1030.8 mb 0.00 in0.0 mm 0.00 in0.0 mm 0.00 in0.0 mm
02:05 AM 29.7°F-1.3°C 26.2°F-3.2°C 87% Calm Calm 2.0 mph3.2 kmh 30.44 in1030.8 mb 0.00 in0.0 mm 0.00 in0.0 mm 0.00 in0.0 mm
02:10 AM 29.7°F-1.3°C 26.2°F-3.2°C 87% Calm Calm 2.0 mph3.2 kmh 30.44 in1030.8 mb 0.00 in0.0 mm 0.00 in0.0 mm 0.00 in0.0 mm
02:15 AM 29.5°F-1.4°C 26.1°F-3.3°C 87% Calm Calm 3.0 mph4.8 kmh 30.44 in1030.8 mb 0.00 in0.0 mm 0.00 in0.0 mm 0.00 in0.0 mm
02:20 AM 29.5°F-1.4°C 26.1°F-3.3°C 87% Calm Calm 3.0 mph4.8 kmh 30.44 in1030.8 mb 0.00 in0.0 mm 0.00 in0.0 mm 0.00 in0.0 mm
02:25 AM 29.5°F-1.4°C 26.1°F-3.3°C 87% Calm Calm 3.0 mph4.8 kmh 30.44 in1030.8 mb 0.00 in0.0 mm 0.00 in0.0 mm 0.00 in0.0 mm
02:30 AM 29.5°F-1.4°C 26.1°F-3.3°C 87% Calm Calm 3.0 mph4.8 kmh 30.44 in1030.8 mb 0.00 in0.0 mm 0.00 in0.0 mm 0.00 in0.0 mm
02:35 AM 29.7°F-1.3°C 26.2°F-3.2°C 87% Calm Calm 2.0 mph3.2 kmh 30.44 in1030.8 mb 0.00 in0.0 mm 0.00 in0.0 mm 0.00 in0.0 mm
02:40 AM 29.7°F-1.3°C 26.2°F-3.2°C 87% Calm Calm 2.0 mph3.2 kmh 30.44 in1030.8 mb 0.00 in0.0 mm 0.00 in0.0 mm 0.00 in0.0 mm
02:45 AM 29.7°F-1.3°C 26.4°F-3.1°C 88% Calm Calm 2.0 mph3.2 kmh 30.44 in1030.8 mb 0.00 in0.0 mm 0.00 in0.0 mm 0.00 in0.0 mm
02:50 AM 29.7°F-1.3°C 26.4°F-3.1°C 88% Calm Calm 2.0 mph3.2 kmh 30.44 in1030.8 mb 0.00 in0.0 mm 0.00 in0.0 mm 0.00 in0.0 mm
02:55 AM 29.5°F-1.4°C 26.4°F-3.1°C 88% Calm Calm 2.0 mph3.2 kmh 30.44 in1030.8 mb 0.00 in0.0 mm 0.00 in0.0 mm 0.00 in0.0 mm
03:00 AM 29.5°F-1.4°C 26.4°F-3.1°C 88% Calm Calm 4.0 mph6.4 kmh 30.44 in1030.8 mb 0.00 in0.0 mm 0.00 in0.0 mm 0.00 in0.0 mm
03:05 AM 29.5°F-1.4°C 26.4°F-3.1°C 88% Calm Calm 4.0 mph6.4 kmh 30.44 in1030.8 mb 0.00 in0.0 mm 0.00 in0.0 mm 0.00 in0.0 mm
03:10 AM 29.5°F-1.4°C 26.2°F-3.2°C 88% Calm Calm 3.0 mph4.8 kmh 30.44 in1030.8 mb 0.00 in0.0 mm 0.00 in0.0 mm 0.00 in0.0 mm
03:15 AM 29.5°F-1.4°C 26.2°F-3.2°C 88% Calm Calm 3.0 mph4.8 kmh 30.44 in1030.8 mb 0.00 in0.0 mm 0.00 in0.0 mm 0.00 in0.0 mm
03:20 AM 29.5°F-1.4°C 26.2°F-3.2°C 88% 1.0 mph NW1.6 kmh NW 4.0 mph6.4 kmh 30.44 in1030.8 mb 0.00 in0.0 mm 0.00 in0.0 mm 0.00 in0.0 mm
03:25 AM 29.5°F-1.4°C 26.2°F-3.2°C 88% Calm Calm 4.0 mph6.4 kmh 30.44 in1030.8 mb 0.00 in0.0 mm 0.00 in0.0 mm 0.00 in0.0 mm
03:30 AM 29.5°F-1.4°C 26.2°F-3.2°C 88% Calm Calm 3.0 mph4.8 kmh 30.44 in1030.8 mb 0.00 in0.0 mm 0.00 in0.0 mm 0.00 in0.0 mm
03:35 AM 29.5°F-1.4°C 26.2°F-3.2°C 88% 1.0 mph NW1.6 kmh NW 3.0 mph4.8 kmh 30.44 in1030.8 mb 0.00 in0.0 mm 0.00 in0.0 mm 0.00 in0.0 mm
03:40 AM 29.3°F-1.5°C 26.2°F-3.2°C 88% Calm Calm 3.0 mph4.8 kmh 30.43 in1030.5 mb 0.00 in0.0 mm 0.00 in0.0 mm 0.00 in0.0 mm
03:45 AM 29.3°F-1.5°C 26.2°F-3.2°C 88% Calm Calm 2.0 mph3.2 kmh 30.44 in1030.8 mb 0.00 in0.0 mm 0.00 in0.0 mm 0.00 in0.0 mm
03:50 AM 29.3°F-1.5°C 26.2°F-3.2°C 88% Calm Calm 1.0 mph1.6 kmh 30.44 in1030.8 mb 0.00 in0.0 mm 0.00 in0.0 mm 0.00 in0.0 mm
03:55 AM 29.1°F-1.6°C 26.4°F-3.1°C 89% Calm Calm 2.0 mph3.2 kmh 30.44 in1030.8 mb 0.00 in0.0 mm 0.00 in0.0 mm 0.00 in0.0 mm
04:00 AM 29.3°F-1.5°C 26.4°F-3.1°C 89% Calm Calm 2.0 mph3.2 kmh 30.44 in1030.8 mb 0.00 in0.0 mm 0.00 in0.0 mm 0.00 in0.0 mm
04:05 AM 29.3°F-1.5°C 26.4°F-3.1°C 89% Calm Calm 2.0 mph3.2 kmh 30.44 in1030.8 mb 0.00 in0.0 mm 0.00 in0.0 mm 0.00 in0.0 mm
04:10 AM 29.1°F-1.6°C 26.4°F-3.1°C 89% Calm Calm 1.0 mph1.6 kmh 30.44 in1030.8 mb 0.00 in0.0 mm 0.00 in0.0 mm 0.00 in0.0 mm
04:15 AM 29.1°F-1.6°C 26.1°F-3.3°C 88% Calm Calm 1.0 mph1.6 kmh 30.44 in1030.8 mb 0.00 in0.0 mm 0.00 in0.0 mm 0.00 in0.0 mm
04:20 AM 28.9°F-1.7°C 26.2°F-3.2°C 89% Calm Calm 1.0 mph1.6 kmh 30.44 in1030.8 mb 0.00 in0.0 mm 0.00 in0.0 mm 0.00 in0.0 mm
04:25 AM 28.9°F-1.7°C 26.1°F-3.3°C 89% Calm Calm -- 30.44 in1030.8 mb 0.00 in0.0 mm 0.00 in0.0 mm 0.00 in0.0 mm
04:30 AM 28.9°F-1.7°C 26.1°F-3.3°C 89% Calm Calm 1.0 mph1.6 kmh 30.44 in1030.8 mb 0.00 in0.0 mm 0.00 in0.0 mm 0.00 in0.0 mm
04:35 AM 28.9°F-1.7°C 26.2°F-3.2°C 89% Calm Calm 2.0 mph3.2 kmh 30.44 in1030.8 mb 0.00 in0.0 mm 0.00 in0.0 mm 0.00 in0.0 mm
04:40 AM 29.1°F-1.6°C 26.2°F-3.2°C 89% Calm Calm 2.0 mph3.2 kmh 30.44 in1030.8 mb 0.00 in0.0 mm 0.00 in0.0 mm 0.00 in0.0 mm
04:45 AM 29.1°F-1.6°C 26.4°F-3.1°C 89% Calm Calm 2.0 mph3.2 kmh 30.45 in1031.2 mb 0.00 in0.0 mm 0.00 in0.0 mm 0.00 in0.0 mm
04:50 AM 29.3°F-1.5°C 26.4°F-3.1°C 89% Calm Calm 2.0 mph3.2 kmh 30.45 in1031.2 mb 0.00 in0.0 mm 0.00 in0.0 mm 0.00 in0.0 mm
04:55 AM 29.3°F-1.5°C 26.4°F-3.1°C 89% Calm Calm 2.0 mph3.2 kmh 30.45 in1031.2 mb 0.00 in0.0 mm 0.00 in0.0 mm 0.00 in0.0 mm
05:00 AM 29.3°F-1.5°C 26.4°F-3.1°C 89% Calm Calm 2.0 mph3.2 kmh 30.44 in1030.8 mb 0.00 in0.0 mm 0.00 in0.0 mm 0.00 in0.0 mm
05:05 AM 29.1°F-1.6°C 26.4°F-3.1°C 89% Calm Calm 1.0 mph1.6 kmh 30.44 in1030.8 mb 0.00 in0.0 mm 0.00 in0.0 mm 0.00 in0.0 mm
05:10 AM 29.1°F-1.6°C 26.2°F-3.2°C 89% Calm Calm 1.0 mph1.6 kmh 30.44 in1030.8 mb 0.00 in0.0 mm 0.00 in0.0 mm 0.00 in0.0 mm
05:15 AM 28.9°F-1.7°C 26.2°F-3.2°C 89% Calm Calm 1.0 mph1.6 kmh 30.44 in1030.8 mb 0.00 in0.0 mm 0.00 in0.0 mm 0.00 in0.0 mm
05:20 AM 28.9°F-1.7°C 26.1°F-3.3°C 89% Calm Calm 1.0 mph1.6 kmh 30.44 in1030.8 mb 0.00 in0.0 mm 0.00 in0.0 mm 0.00 in0.0 mm
05:25 AM 28.8°F-1.8°C 25.9°F-3.4°C 89% Calm Calm 1.0 mph1.6 kmh 30.44 in1030.8 mb 0.00 in0.0 mm 0.00 in0.0 mm 0.00 in0.0 mm
05:30 AM 28.8°F-1.8°C 26.1°F-3.3°C 90% Calm Calm 2.0 mph3.2 kmh 30.43 in1030.5 mb 0.00 in0.0 mm 0.00 in0.0 mm 0.00 in0.0 mm
05:35 AM 28.8°F-1.8°C 26.2°F-3.2°C 90% Calm Calm 2.0 mph3.2 kmh 30.43 in1030.5 mb 0.00 in0.0 mm 0.00 in0.0 mm 0.00 in0.0 mm
05:40 AM 28.8°F-1.8°C 26.2°F-3.2°C 90% Calm Calm 1.0 mph1.6 kmh 30.43 in1030.5 mb 0.00 in0.0 mm 0.00 in0.0 mm 0.00 in0.0 mm
05:45 AM 28.8°F-1.8°C 26.2°F-3.2°C 90% Calm Calm 1.0 mph1.6 kmh 30.43 in1030.5 mb 0.00 in0.0 mm 0.00 in0.0 mm 0.00 in0.0 mm
05:50 AM 28.9°F-1.7°C 26.4°F-3.1°C 90% Calm Calm 2.0 mph3.2 kmh 30.43 in1030.5 mb 0.00 in0.0 mm 0.00 in0.0 mm 0.00 in0.0 mm
05:55 AM 28.9°F-1.7°C 26.4°F-3.1°C 90% Calm Calm 2.0 mph3.2 kmh 30.43 in1030.5 mb 0.00 in0.0 mm 0.00 in0.0 mm 0.00 in0.0 mm
06:00 AM 28.9°F-1.7°C 26.4°F-3.1°C 90% Calm Calm 2.0 mph3.2 kmh 30.43 in1030.5 mb 0.00 in0.0 mm 0.00 in0.0 mm 0.00 in0.0 mm
06:05 AM 29.1°F-1.6°C 26.6°F-3.0°C 90% Calm Calm 2.0 mph3.2 kmh 30.43 in1030.5 mb 0.00 in0.0 mm 0.00 in0.0 mm 0.00 in0.0 mm
06:10 AM 29.1°F-1.6°C 26.6°F-3.0°C 90% Calm Calm 2.0 mph3.2 kmh 30.43 in1030.5 mb 0.00 in0.0 mm 0.00 in0.0 mm 0.00 in0.0 mm
06:15 AM 29.1°F-1.6°C 26.6°F-3.0°C 90% Calm Calm 1.0 mph1.6 kmh 30.43 in1030.5 mb 0.00 in0.0 mm 0.00 in0.0 mm 0.00 in0.0 mm
06:20 AM 29.3°F-1.5°C 26.8°F-2.9°C 90% Calm Calm 2.0 mph3.2 kmh 30.43 in1030.5 mb 0.00 in0.0 mm 0.00 in0.0 mm 0.00 in0.0 mm
06:25 AM 29.5°F-1.4°C 26.8°F-2.9°C 90% Calm Calm 2.0 mph3.2 kmh 30.43 in1030.5 mb 0.00 in0.0 mm 0.00 in0.0 mm 0.00 in0.0 mm
06:30 AM 29.5°F-1.4°C 27.0°F-2.8°C 90% Calm Calm 3.0 mph4.8 kmh 30.43 in1030.5 mb 0.00 in0.0 mm 0.00 in0.0 mm 0.00 in0.0 mm
06:35 AM 29.5°F-1.4°C 27.0°F-2.8°C 90% Calm Calm 3.0 mph4.8 kmh 30.43 in1030.5 mb 0.00 in0.0 mm 0.00 in0.0 mm 0.00 in0.0 mm
06:40 AM 29.7°F-1.3°C 27.0°F-2.8°C 90% Calm Calm 1.0 mph1.6 kmh 30.43 in1030.5 mb 0.00 in0.0 mm 0.00 in0.0 mm 0.00 in0.0 mm
06:45 AM 29.7°F-1.3°C 27.1°F-2.7°C 90% Calm Calm 1.0 mph1.6 kmh 30.43 in1030.5 mb 0.00 in0.0 mm 0.00 in0.0 mm 0.00 in0.0 mm
06:50 AM 29.7°F-1.3°C 27.1°F-2.7°C 90% Calm Calm 1.0 mph1.6 kmh 30.43 in1030.5 mb 0.00 in0.0 mm 0.00 in0.0 mm 0.00 in0.0 mm
06:55 AM 29.8°F-1.2°C 27.1°F-2.7°C 90% Calm Calm 4.0 mph6.4 kmh 30.43 in1030.5 mb 0.00 in0.0 mm 0.00 in0.0 mm 0.00 in0.0 mm
07:00 AM 30.0°F-1.1°C 27.5°F-2.5°C 90% Calm Calm 4.0 mph6.4 kmh 30.43 in1030.5 mb 0.00 in0.0 mm 0.00 in0.0 mm 0.00 in0.0 mm
07:05 AM 30.0°F-1.1°C 27.5°F-2.5°C 90% 1.0 mph WSW1.6 kmh WSW 4.0 mph6.4 kmh 30.43 in1030.5 mb 0.00 in0.0 mm 0.00 in0.0 mm 0.00 in0.0 mm
07:10 AM 30.2°F-1.0°C 27.7°F-2.4°C 90% 1.0 mph WSW1.6 kmh WSW 4.0 mph6.4 kmh 30.43 in1030.5 mb 0.00 in0.0 mm 0.00 in0.0 mm 0.00 in0.0 mm
07:15 AM 30.2°F-1.0°C 27.7°F-2.4°C 90% Calm Calm 3.0 mph4.8 kmh 30.43 in1030.5 mb 0.00 in0.0 mm 0.00 in0.0 mm 0.00 in0.0 mm
07:20 AM 30.2°F-1.0°C 27.7°F-2.4°C 90% 1.0 mph WSW1.6 kmh WSW 4.0 mph6.4 kmh 30.43 in1030.5 mb 0.00 in0.0 mm 0.00 in0.0 mm 0.00 in0.0 mm
07:25 AM 30.4°F-0.9°C 27.9°F-2.3°C 90% 1.0 mph WSW1.6 kmh WSW 4.0 mph6.4 kmh 30.43 in1030.5 mb 0.00 in0.0 mm 0.00 in0.0 mm 0.00 in0.0 mm
07:30 AM 30.4°F-0.9°C 28.0°F-2.2°C 91% 1.0 mph WSW1.6 kmh WSW 4.0 mph6.4 kmh 30.43 in1030.5 mb 0.00 in0.0 mm 0.00 in0.0 mm 0.00 in0.0 mm
07:35 AM 30.6°F-0.8°C 28.2°F-2.1°C 91% 1.0 mph SW1.6 kmh SW 6.0 mph9.7 kmh 30.43 in1030.5 mb 0.00 in0.0 mm 0.00 in0.0 mm 0.00 in0.0 mm
07:40 AM 30.6°F-0.8°C 28.2°F-2.1°C 91% 1.0 mph SW1.6 kmh SW 6.0 mph9.7 kmh 30.43 in1030.5 mb 0.00 in0.0 mm 0.00 in0.0 mm 0.00 in0.0 mm
07:45 AM 30.7°F-0.7°C 28.4°F-2.0°C 91% 1.0 mph WSW1.6 kmh WSW 4.0 mph6.4 kmh 30.44 in1030.8 mb 0.00 in0.0 mm 0.00 in0.0 mm 0.00 in0.0 mm
07:50 AM 30.9°F-0.6°C 28.9°F-1.7°C 92% Calm Calm 3.0 mph4.8 kmh 30.44 in1030.8 mb 0.00 in0.0 mm 0.00 in0.0 mm 0.00 in0.0 mm
07:55 AM 30.9°F-0.6°C 28.9°F-1.7°C 92% 1.0 mph WSW1.6 kmh WSW 4.0 mph6.4 kmh 30.43 in1030.5 mb 0.00 in0.0 mm 0.00 in0.0 mm 0.00 in0.0 mm
08:00 AM 30.9°F-0.6°C 28.9°F-1.7°C 92% 1.0 mph WSW1.6 kmh WSW 4.0 mph6.4 kmh 30.44 in1030.8 mb 0.00 in0.0 mm 0.00 in0.0 mm 0.00 in0.0 mm
08:05 AM 31.3°F-0.4°C 29.1°F-1.6°C 92% 1.0 mph SW1.6 kmh SW 2.0 mph3.2 kmh 30.44 in1030.8 mb 0.00 in0.0 mm 0.00 in0.0 mm 0.00 in0.0 mm
08:10 AM 31.3°F-0.4°C 29.3°F-1.5°C 92% Calm Calm 3.0 mph4.8 kmh 30.44 in1030.8 mb 0.00 in0.0 mm 0.00 in0.0 mm 0.00 in0.0 mm
08:15 AM 31.5°F-0.3°C 29.3°F-1.5°C 92% Calm Calm 3.0 mph4.8 kmh 30.44 in1030.8 mb 0.00 in0.0 mm 0.00 in0.0 mm 0.00 in0.0 mm
08:20 AM 31.5°F-0.3°C 29.3°F-1.5°C 92% Calm Calm 3.0 mph4.8 kmh 30.44 in1030.8 mb 0.00 in0.0 mm 0.00 in0.0 mm 0.00 in0.0 mm
08:25 AM 31.5°F-0.3°C 29.5°F-1.4°C 92% Calm Calm 4.0 mph6.4 kmh 30.45 in1031.2 mb 0.00 in0.0 mm 0.00 in0.0 mm 0.00 in0.0 mm
08:30 AM 31.5°F-0.3°C 29.5°F-1.4°C 92% Calm Calm 4.0 mph6.4 kmh 30.45 in1031.2 mb 0.00 in0.0 mm 0.00 in0.0 mm 0.00 in0.0 mm
08:35 AM 31.6°F-0.2°C 29.8°F-1.2°C 93% Calm Calm 5.0 mph8.0 kmh 30.45 in1031.2 mb 0.00 in0.0 mm 0.00 in0.0 mm 0.00 in0.0 mm
08:40 AM 31.6°F-0.2°C 29.8°F-1.2°C 93% 1.0 mph WSW1.6 kmh WSW 5.0 mph8.0 kmh 30.45 in1031.2 mb 0.00 in0.0 mm 0.00 in0.0 mm 0.00 in0.0 mm
08:45 AM 31.6°F-0.2°C 29.8°F-1.2°C 93% 1.0 mph WSW1.6 kmh WSW 3.0 mph4.8 kmh 30.45 in1031.2 mb 0.00 in0.0 mm 0.00 in0.0 mm 0.00 in0.0 mm
08:50 AM 31.6°F-0.2°C 29.8°F-1.2°C 93% Calm Calm 3.0 mph4.8 kmh 30.45 in1031.2 mb 0.00 in0.0 mm 0.00 in0.0 mm 0.00 in0.0 mm
08:55 AM 31.8°F-0.1°C 30.0°F-1.1°C 93% 1.0 mph SW1.6 kmh SW 3.0 mph4.8 kmh 30.45 in1031.2 mb 0.00 in0.0 mm 0.00 in0.0 mm 0.00 in0.0 mm
09:00 AM 31.8°F-0.1°C 30.0°F-1.1°C 93% 1.0 mph SW1.6 kmh SW 5.0 mph8.0 kmh 30.45 in1031.2 mb 0.00 in0.0 mm 0.00 in0.0 mm 0.00 in0.0 mm
09:05 AM 32.0°F0.0°C 30.2°F-1.0°C 93% 1.0 mph SW1.6 kmh SW 8.0 mph12.9 kmh 30.45 in1031.2 mb 0.00 in0.0 mm 0.00 in0.0 mm 0.00 in0.0 mm
09:10 AM 32.2°F0.1°C 30.4°F-0.9°C 93% 1.0 mph SW1.6 kmh SW 8.0 mph12.9 kmh 30.45 in1031.2 mb 0.00 in0.0 mm 0.00 in0.0 mm 0.00 in0.0 mm
09:15 AM 32.2°F0.1°C 30.4°F-0.9°C 93% 1.0 mph WSW1.6 kmh WSW 7.0 mph11.3 kmh 30.44 in1030.8 mb 0.00 in0.0 mm 0.00 in0.0 mm 0.00 in0.0 mm
09:20 AM 32.2°F0.1°C 30.4°F-0.9°C 93% 2.0 mph WSW3.2 kmh WSW 6.0 mph9.7 kmh 30.44 in1030.8 mb 0.00 in0.0 mm 0.00 in0.0 mm 0.00 in0.0 mm
09:25 AM 32.2°F0.1°C 30.7°F-0.7°C 94% 2.0 mph WSW3.2 kmh WSW 7.0 mph11.3 kmh 30.44 in1030.8 mb 0.00 in0.0 mm 0.00 in0.0 mm 0.00 in0.0 mm
09:30 AM 32.4°F0.2°C 30.7°F-0.7°C 94% 2.0 mph SW3.2 kmh SW 9.0 mph14.5 kmh 30.43 in1030.5 mb 0.00 in0.0 mm 0.00 in0.0 mm 0.00 in0.0 mm
09:35 AM 32.4°F0.2°C 30.7°F-0.7°C 94% 3.0 mph SW4.8 kmh SW 9.0 mph14.5 kmh 30.43 in1030.5 mb 0.00 in0.0 mm 0.00 in0.0 mm 0.00 in0.0 mm
09:40 AM 32.4°F0.2°C 30.9°F-0.6°C 94% 3.0 mph SW4.8 kmh SW 9.0 mph14.5 kmh 30.42 in1030.1 mb 0.00 in0.0 mm 0.00 in0.0 mm 0.00 in0.0 mm
09:45 AM 32.5°F0.3°C 30.9°F-0.6°C 94% 3.0 mph WSW4.8 kmh WSW 9.0 mph14.5 kmh 30.42 in1030.1 mb 0.00 in0.0 mm 0.00 in0.0 mm 0.00 in0.0 mm
09:50 AM 32.5°F0.3°C 31.3°F-0.4°C 95% 3.0 mph SW4.8 kmh SW 9.0 mph14.5 kmh 30.42 in1030.1 mb 0.00 in0.0 mm 0.00 in0.0 mm 0.00 in0.0 mm
09:55 AM 32.7°F0.4°C 31.5°F-0.3°C 95% 2.0 mph WSW3.2 kmh WSW 8.0 mph12.9 kmh 30.43 in1030.5 mb 0.00 in0.0 mm 0.00 in0.0 mm 0.00 in0.0 mm
10:00 AM 32.9°F0.5°C 31.6°F-0.2°C 95% 1.0 mph SW1.6 kmh SW 7.0 mph11.3 kmh 30.43 in1030.5 mb 0.00 in0.0 mm 0.00 in0.0 mm 0.00 in0.0 mm
10:05 AM 33.1°F0.6°C 31.6°F-0.2°C 95% 1.0 mph SW1.6 kmh SW 5.0 mph8.0 kmh 30.44 in1030.8 mb 0.00 in0.0 mm 0.00 in0.0 mm 0.00 in0.0 mm
10:10 AM 33.1°F0.6°C 31.6°F-0.2°C 95% 1.0 mph WSW1.6 kmh WSW 5.0 mph8.0 kmh 30.43 in1030.5 mb 0.00 in0.0 mm 0.00 in0.0 mm 0.00 in0.0 mm
10:15 AM 33.1°F0.6°C 31.8°F-0.1°C 95% 1.0 mph WSW1.6 kmh WSW 5.0 mph8.0 kmh 30.43 in1030.5 mb 0.00 in0.0 mm 0.00 in0.0 mm 0.00 in0.0 mm
10:20 AM 33.1°F0.6°C 31.6°F-0.2°C 95% 2.0 mph WSW3.2 kmh WSW 8.0 mph12.9 kmh 30.43 in1030.5 mb 0.00 in0.0 mm 0.00 in0.0 mm 0.00 in0.0 mm
10:25 AM 33.1°F0.6°C 31.8°F-0.1°C 95% 3.0 mph WSW4.8 kmh WSW 9.0 mph14.5 kmh 30.44 in1030.8 mb 0.00 in0.0 mm 0.00 in0.0 mm 0.00 in0.0 mm
10:30 AM 33.3°F0.7°C 32.0°F0.0°C 95% 2.0 mph WSW3.2 kmh WSW 9.0 mph14.5 kmh 30.44 in1030.8 mb 0.00 in0.0 mm 0.00 in0.0 mm 0.00 in0.0 mm
10:35 AM 33.3°F0.7°C 32.0°F0.0°C 95% 1.0 mph WSW1.6 kmh WSW 5.0 mph8.0 kmh 30.44 in1030.8 mb 0.00 in0.0 mm 0.00 in0.0 mm 0.00 in0.0 mm
10:40 AM 33.4°F0.8°C 32.2°F0.1°C 95% 1.0 mph SW1.6 kmh SW 5.0 mph8.0 kmh 30.44 in1030.8 mb 0.00 in0.0 mm 0.00 in0.0 mm 0.00 in0.0 mm
10:45 AM 33.4°F0.8°C 32.2°F0.1°C 95% 3.0 mph SW4.8 kmh SW 12.0 mph19.3 kmh 30.44 in1030.8 mb 0.00 in0.0 mm 0.00 in0.0 mm 0.00 in0.0 mm
10:50 AM 33.4°F0.8°C 32.2°F0.1°C 95% 3.0 mph SW4.8 kmh SW 12.0 mph19.3 kmh 30.44 in1030.8 mb 0.00 in0.0 mm 0.00 in0.0 mm 0.00 in0.0 mm
10:55 AM 33.4°F0.8°C 32.2°F0.1°C 95% 2.0 mph SW3.2 kmh SW 8.0 mph12.9 kmh 30.44 in1030.8 mb 0.00 in0.0 mm 0.00 in0.0 mm 0.00 in0.0 mm
11:00 AM 33.4°F0.8°C 32.2°F0.1°C 95% 2.0 mph SW3.2 kmh SW 8.0 mph12.9 kmh 30.44 in1030.8 mb 0.00 in0.0 mm 0.00 in0.0 mm 0.00 in0.0 mm
11:05 AM 33.4°F0.8°C 32.2°F0.1°C 95% 3.0 mph SW4.8 kmh SW 8.0 mph12.9 kmh 30.44 in1030.8 mb 0.00 in0.0 mm 0.00 in0.0 mm 0.00 in0.0 mm
11:10 AM 33.6°F0.9°C 32.4°F0.2°C 95% 2.0 mph WSW3.2 kmh WSW 7.0 mph11.3 kmh 30.44 in1030.8 mb 0.00 in0.0 mm 0.00 in0.0 mm 0.00 in0.0 mm
11:15 AM 33.6°F0.9°C 32.4°F0.2°C 95% 2.0 mph WSW3.2 kmh WSW 9.0 mph14.5 kmh 30.44 in1030.8 mb 0.00 in0.0 mm 0.00 in0.0 mm 0.00 in0.0 mm
11:20 AM 33.8°F1.0°C 32.5°F0.3°C 95% 2.0 mph WSW3.2 kmh WSW 9.0 mph14.5 kmh 30.44 in1030.8 mb 0.00 in0.0 mm 0.00 in0.0 mm 0.00 in0.0 mm
11:25 AM 33.6°F0.9°C 32.4°F0.2°C 95% 3.0 mph WSW4.8 kmh WSW 11.0 mph17.7 kmh 30.44 in1030.8 mb 0.00 in0.0 mm 0.00 in0.0 mm 0.00 in0.0 mm
11:30 AM 34.0°F1.1°C 32.4°F0.2°C 94% 3.0 mph SW4.8 kmh SW 11.0 mph17.7 kmh 30.44 in1030.8 mb 0.01 in0.3 mm 0.12 in3.0 mm 0.01 in0.3 mm
11:35 AM 34.0°F1.1°C 32.5°F0.3°C 94% 2.0 mph WSW3.2 kmh WSW 8.0 mph12.9 kmh 30.44 in1030.8 mb 0.01 in0.3 mm 0.00 in0.0 mm 0.01 in0.3 mm
11:40 AM 34.2°F1.2°C 32.5°F0.3°C 94% 2.0 mph SW3.2 kmh SW 8.0 mph12.9 kmh 30.44 in1030.8 mb 0.01 in0.3 mm 0.00 in0.0 mm 0.01 in0.3 mm
11:45 AM 34.2°F1.2°C 32.7°F0.4°C 94% 2.0 mph WSW3.2 kmh WSW 8.0 mph12.9 kmh 30.44 in1030.8 mb 0.01 in0.3 mm 0.00 in0.0 mm 0.01 in0.3 mm
11:50 AM 34.3°F1.3°C 32.7°F0.4°C 94% 2.0 mph WSW3.2 kmh WSW 8.0 mph12.9 kmh 30.44 in1030.8 mb 0.01 in0.3 mm 0.00 in0.0 mm 0.01 in0.3 mm
11:55 AM 34.3°F1.3°C 32.7°F0.4°C 94% 2.0 mph WSW3.2 kmh WSW 8.0 mph12.9 kmh 30.44 in1030.8 mb 0.01 in0.3 mm 0.00 in0.0 mm 0.01 in0.3 mm
12:00 PM 34.5°F1.4°C 32.9°F0.5°C 94% 1.0 mph WSW1.6 kmh WSW 6.0 mph9.7 kmh 30.44 in1030.8 mb 0.01 in0.3 mm 0.00 in0.0 mm 0.01 in0.3 mm
12:05 PM 34.5°F1.4°C 32.7°F0.4°C 93% 2.0 mph WSW3.2 kmh WSW 8.0 mph12.9 kmh 30.44 in1030.8 mb 0.02 in0.5 mm 0.12 in3.0 mm 0.02 in0.5 mm
12:10 PM 34.5°F1.4°C 32.7°F0.4°C 93% 3.0 mph WSW4.8 kmh WSW 8.0 mph12.9 kmh 30.44 in1030.8 mb 0.02 in0.5 mm 0.00 in0.0 mm 0.02 in0.5 mm
12:15 PM 34.7°F1.5°C 32.9°F0.5°C 93% 2.0 mph WSW3.2 kmh WSW 8.0 mph12.9 kmh 30.44 in1030.8 mb 0.02 in0.5 mm 0.00 in0.0 mm 0.02 in0.5 mm
12:20 PM 34.9°F1.6°C 33.1°F0.6°C 93% 1.0 mph SW1.6 kmh SW 5.0 mph8.0 kmh 30.44 in1030.8 mb 0.02 in0.5 mm 0.00 in0.0 mm 0.02 in0.5 mm
12:25 PM 34.9°F1.6°C 32.9°F0.5°C 92% 2.0 mph SW3.2 kmh SW 7.0 mph11.3 kmh 30.44 in1030.8 mb 0.02 in0.5 mm 0.00 in0.0 mm 0.02 in0.5 mm
12:30 PM 35.1°F1.7°C 32.9°F0.5°C 92% 3.0 mph SW4.8 kmh SW 7.0 mph11.3 kmh 30.44 in1030.8 mb 0.01 in0.3 mm 0.00 in0.0 mm 0.02 in0.5 mm
12:35 PM 35.1°F1.7°C 32.9°F0.5°C 92% 2.0 mph WSW3.2 kmh WSW 7.0 mph11.3 kmh 30.44 in1030.8 mb 0.01 in0.3 mm 0.00 in0.0 mm 0.02 in0.5 mm
12:40 PM 35.1°F1.7°C 32.9°F0.5°C 92% 2.0 mph WSW3.2 kmh WSW 7.0 mph11.3 kmh 30.44 in1030.8 mb 0.01 in0.3 mm 0.00 in0.0 mm 0.02 in0.5 mm
12:45 PM 35.1°F1.7°C 33.1°F0.6°C 92% 2.0 mph WSW3.2 kmh WSW 6.0 mph9.7 kmh 30.44 in1030.8 mb 0.01 in0.3 mm 0.00 in0.0 mm 0.02 in0.5 mm
12:50 PM 35.1°F1.7°C 32.9°F0.5°C 92% 2.0 mph WSW3.2 kmh WSW 6.0 mph9.7 kmh 30.44 in1030.8 mb 0.01 in0.3 mm 0.00 in0.0 mm 0.02 in0.5 mm
12:55 PM 35.1°F1.7°C 32.9°F0.5°C 92% 2.0 mph WSW3.2 kmh WSW 7.0 mph11.3 kmh 30.43 in1030.5 mb 0.01 in0.3 mm 0.00 in0.0 mm 0.02 in0.5 mm
01:00 PM 35.1°F1.7°C 33.1°F0.6°C 92% 2.0 mph WSW3.2 kmh WSW 7.0 mph11.3 kmh 30.43 in1030.5 mb 0.01 in0.3 mm 0.00 in0.0 mm 0.02 in0.5 mm
01:05 PM 35.1°F1.7°C 32.9°F0.5°C 92% 2.0 mph WSW3.2 kmh WSW 9.0 mph14.5 kmh 30.43 in1030.5 mb 0.00 in0.0 mm 0.00 in0.0 mm 0.02 in0.5 mm
01:10 PM 35.1°F1.7°C 33.3°F0.7°C 93% 2.0 mph WSW3.2 kmh WSW 9.0 mph14.5 kmh 30.43 in1030.5 mb 0.00 in0.0 mm 0.00 in0.0 mm 0.02 in0.5 mm
01:15 PM 35.1°F1.7°C 33.3°F0.7°C 93% 2.0 mph WSW3.2 kmh WSW 8.0 mph12.9 kmh 30.44 in1030.8 mb 0.00 in0.0 mm 0.00 in0.0 mm 0.02 in0.5 mm
01:20 PM 35.1°F1.7°C 33.3°F0.7°C 93% 2.0 mph WSW3.2 kmh WSW 7.0 mph11.3 kmh 30.44 in1030.8 mb 0.00 in0.0 mm 0.00 in0.0 mm 0.02 in0.5 mm
01:25 PM 35.2°F1.8°C 33.4°F0.8°C 93% 2.0 mph SW3.2 kmh SW 7.0 mph11.3 kmh 30.44 in1030.8 mb 0.00 in0.0 mm 0.00 in0.0 mm 0.02 in0.5 mm
01:30 PM 35.1°F1.7°C 33.3°F0.7°C 93% 1.0 mph WSW1.6 kmh WSW 7.0 mph11.3 kmh 30.44 in1030.8 mb 0.00 in0.0 mm 0.00 in0.0 mm 0.02 in0.5 mm
01:35 PM 35.2°F1.8°C 33.4°F0.8°C 93% 2.0 mph WSW3.2 kmh WSW 10.0 mph16.1 kmh 30.43 in1030.5 mb 0.00 in0.0 mm 0.00 in0.0 mm 0.02 in0.5 mm
01:40 PM 35.2°F1.8°C 33.8°F1.0°C 94% 3.0 mph WSW4.8 kmh WSW 10.0 mph16.1 kmh 30.43 in1030.5 mb 0.00 in0.0 mm 0.00 in0.0 mm 0.02 in0.5 mm
01:45 PM 35.4°F1.9°C 33.8°F1.0°C 94% 3.0 mph WSW4.8 kmh WSW 9.0 mph14.5 kmh 30.43 in1030.5 mb 0.00 in0.0 mm 0.00 in0.0 mm 0.02 in0.5 mm
01:50 PM 35.4°F1.9°C 34.0°F1.1°C 94% 3.0 mph WSW4.8 kmh WSW 9.0 mph14.5 kmh 30.43 in1030.5 mb 0.00 in0.0 mm 0.00 in0.0 mm 0.02 in0.5 mm
01:55 PM 35.8°F2.1°C 34.2°F1.2°C 94% 2.0 mph WSW3.2 kmh WSW 7.0 mph11.3 kmh 30.43 in1030.5 mb 0.00 in0.0 mm 0.00 in0.0 mm 0.02 in0.5 mm
02:00 PM 35.8°F2.1°C 34.2°F1.2°C 94% 1.0 mph SW1.6 kmh SW 6.0 mph9.7 kmh 30.43 in1030.5 mb 0.00 in0.0 mm 0.00 in0.0 mm 0.02 in0.5 mm
02:05 PM 35.8°F2.1°C 34.2°F1.2°C 94% 1.0 mph WSW1.6 kmh WSW 6.0 mph9.7 kmh 30.43 in1030.5 mb 0.00 in0.0 mm 0.00 in0.0 mm 0.02 in0.5 mm
02:10 PM 36.0°F2.2°C 34.3°F1.3°C 94% 2.0 mph WSW3.2 kmh WSW 7.0 mph11.3 kmh 30.43 in1030.5 mb 0.00 in0.0 mm 0.00 in0.0 mm 0.02 in0.5 mm
02:15 PM 36.0°F2.2°C 34.3°F1.3°C 94% 2.0 mph WSW3.2 kmh WSW 8.0 mph12.9 kmh 30.43 in1030.5 mb 0.00 in0.0 mm 0.00 in0.0 mm 0.02 in0.5 mm
02:20 PM 36.0°F2.2°C 34.5°F1.4°C 94% 3.0 mph SW4.8 kmh SW 12.0 mph19.3 kmh 30.43 in1030.5 mb 0.00 in0.0 mm 0.00 in0.0 mm 0.02 in0.5 mm
02:25 PM 36.1°F2.3°C 34.5°F1.4°C 94% 3.0 mph SW4.8 kmh SW 12.0 mph19.3 kmh 30.43 in1030.5 mb 0.00 in0.0 mm 0.00 in0.0 mm 0.02 in0.5 mm
02:30 PM 36.1°F2.3°C 34.5°F1.4°C 94% 3.0 mph WSW4.8 kmh WSW 12.0 mph19.3 kmh 30.43 in1030.5 mb 0.00 in0.0 mm 0.00 in0.0 mm 0.02 in0.5 mm
02:35 PM 36.1°F2.3°C 34.7°F1.5°C 94% 3.0 mph WSW4.8 kmh WSW 8.0 mph12.9 kmh 30.42 in1030.1 mb 0.00 in0.0 mm 0.00 in0.0 mm 0.02 in0.5 mm
02:40 PM 36.3°F2.4°C 34.7°F1.5°C 94% 3.0 mph WSW4.8 kmh WSW 10.0 mph16.1 kmh 30.42 in1030.1 mb 0.00 in0.0 mm 0.00 in0.0 mm 0.02 in0.5 mm
02:45 PM 36.3°F2.4°C 34.7°F1.5°C 94% 3.0 mph WSW4.8 kmh WSW 13.0 mph20.9 kmh 30.42 in1030.1 mb 0.00 in0.0 mm 0.00 in0.0 mm 0.02 in0.5 mm
02:50 PM 36.3°F2.4°C 34.9°F1.6°C 94% 3.0 mph WSW4.8 kmh WSW 13.0 mph20.9 kmh 30.42 in1030.1 mb 0.00 in0.0 mm 0.00 in0.0 mm 0.02 in0.5 mm
02:55 PM 36.3°F2.4°C 34.9°F1.6°C 94% 3.0 mph WSW4.8 kmh WSW 12.0 mph19.3 kmh 30.42 in1030.1 mb 0.00 in0.0 mm 0.00 in0.0 mm 0.02 in0.5 mm
03:00 PM 36.3°F2.4°C 35.1°F1.7°C 95% 3.0 mph WSW4.8 kmh WSW 9.0 mph14.5 kmh 30.43 in1030.5 mb 0.00 in0.0 mm 0.00 in0.0 mm 0.02 in0.5 mm
03:05 PM 36.3°F2.4°C 35.1°F1.7°C 95% 3.0 mph WSW4.8 kmh WSW 8.0 mph12.9 kmh 30.42 in1030.1 mb 0.00 in0.0 mm 0.00 in0.0 mm 0.02 in0.5 mm
03:10 PM 36.5°F2.5°C 35.2°F1.8°C 95% 2.0 mph WSW3.2 kmh WSW 8.0 mph12.9 kmh 30.42 in1030.1 mb 0.00 in0.0 mm 0.00 in0.0 mm 0.02 in0.5 mm
03:15 PM 36.5°F2.5°C 35.2°F1.8°C 95% 2.0 mph WSW3.2 kmh WSW 7.0 mph11.3 kmh 30.42 in1030.1 mb 0.00 in0.0 mm 0.00 in0.0 mm 0.02 in0.5 mm
03:20 PM 36.5°F2.5°C 35.2°F1.8°C 95% 2.0 mph WSW3.2 kmh WSW 10.0 mph16.1 kmh 30.42 in1030.1 mb 0.00 in0.0 mm 0.00 in0.0 mm 0.02 in0.5 mm
03:25 PM 36.5°F2.5°C 35.2°F1.8°C 95% 2.0 mph WSW3.2 kmh WSW 10.0 mph16.1 kmh 30.42 in1030.1 mb 0.00 in0.0 mm 0.00 in0.0 mm 0.02 in0.5 mm
03:30 PM 36.5°F2.5°C 35.2°F1.8°C 95% 2.0 mph WSW3.2 kmh WSW 8.0 mph12.9 kmh 30.42 in1030.1 mb 0.00 in0.0 mm 0.00 in0.0 mm 0.02 in0.5 mm
03:35 PM 36.5°F2.5°C 35.2°F1.8°C 95% 3.0 mph WSW4.8 kmh WSW 11.0 mph17.7 kmh 30.41 in1029.8 mb 0.00 in0.0 mm 0.00 in0.0 mm 0.02 in0.5 mm
03:40 PM 36.7°F2.6°C 35.2°F1.8°C 95% 3.0 mph WSW4.8 kmh WSW 12.0 mph19.3 kmh 30.41 in1029.8 mb 0.00 in0.0 mm 0.00 in0.0 mm 0.02 in0.5 mm
03:45 PM 36.7°F2.6°C 35.4°F1.9°C 95% 2.0 mph WSW3.2 kmh WSW 12.0 mph19.3 kmh 30.41 in1029.8 mb 0.00 in0.0 mm 0.00 in0.0 mm 0.02 in0.5 mm
03:50 PM 36.7°F2.6°C 35.6°F2.0°C 96% 2.0 mph WSW3.2 kmh WSW 7.0 mph11.3 kmh 30.41 in1029.8 mb 0.00 in0.0 mm 0.00 in0.0 mm 0.02 in0.5 mm
03:55 PM 36.7°F2.6°C 35.6°F2.0°C 96% 2.0 mph WSW3.2 kmh WSW 8.0 mph12.9 kmh 30.41 in1029.8 mb 0.00 in0.0 mm 0.00 in0.0 mm 0.02 in0.5 mm
04:00 PM 36.9°F2.7°C 35.8°F2.1°C 96% 2.0 mph WSW3.2 kmh WSW 8.0 mph12.9 kmh 30.42 in1030.1 mb 0.00 in0.0 mm 0.00 in0.0 mm 0.02 in0.5 mm
04:05 PM 36.9°F2.7°C 35.8°F2.1°C 96% 1.0 mph WSW1.6 kmh WSW 6.0 mph9.7 kmh 30.41 in1029.8 mb 0.00 in0.0 mm 0.00 in0.0 mm 0.02 in0.5 mm
04:10 PM 37.0°F2.8°C 36.0°F2.2°C 96% 2.0 mph WSW3.2 kmh WSW 8.0 mph12.9 kmh 30.41 in1029.8 mb 0.00 in0.0 mm 0.00 in0.0 mm 0.02 in0.5 mm
04:15 PM 37.0°F2.8°C 36.0°F2.2°C 96% 2.0 mph WSW3.2 kmh WSW 8.0 mph12.9 kmh 30.42 in1030.1 mb 0.00 in0.0 mm 0.00 in0.0 mm 0.02 in0.5 mm
04:20 PM 37.0°F2.8°C 36.1°F2.3°C 96% 1.0 mph WSW1.6 kmh WSW 8.0 mph12.9 kmh 30.42 in1030.1 mb 0.00 in0.0 mm 0.00 in0.0 mm 0.02 in0.5 mm
04:25 PM 37.2°F2.9°C 36.1°F2.3°C 96% 2.0 mph WSW3.2 kmh WSW 8.0 mph12.9 kmh 30.43 in1030.5 mb 0.00 in0.0 mm 0.00 in0.0 mm 0.02 in0.5 mm
04:30 PM 37.2°F2.9°C 36.1°F2.3°C 96% 1.0 mph WSW1.6 kmh WSW 7.0 mph11.3 kmh 30.43 in1030.5 mb 0.00 in0.0 mm 0.00 in0.0 mm 0.02 in0.5 mm
04:35 PM 37.2°F2.9°C 36.1°F2.3°C 96% 1.0 mph WSW1.6 kmh WSW 6.0 mph9.7 kmh 30.43 in1030.5 mb 0.00 in0.0 mm 0.00 in0.0 mm 0.02 in0.5 mm
04:40 PM 37.0°F2.8°C 36.1°F2.3°C 96% 1.0 mph WSW1.6 kmh WSW 6.0 mph9.7 kmh 30.43 in1030.5 mb 0.00 in0.0 mm 0.00 in0.0 mm 0.02 in0.5 mm
04:45 PM 37.0°F2.8°C 36.1°F2.3°C 96% 2.0 mph WSW3.2 kmh WSW 8.0 mph12.9 kmh 30.43 in1030.5 mb 0.00 in0.0 mm 0.00 in0.0 mm 0.02 in0.5 mm
04:50 PM 37.0°F2.8°C 36.1°F2.3°C 96% 2.0 mph WSW3.2 kmh WSW 8.0 mph12.9 kmh 30.43 in1030.5 mb 0.00 in0.0 mm 0.00 in0.0 mm 0.02 in0.5 mm
04:55 PM 37.0°F2.8°C 36.1°F2.3°C 96% 1.0 mph WSW1.6 kmh WSW 4.0 mph6.4 kmh 30.43 in1030.5 mb 0.00 in0.0 mm 0.00 in0.0 mm 0.02 in0.5 mm
05:00 PM 37.0°F2.8°C 36.1°F2.3°C 96% 1.0 mph WSW1.6 kmh WSW 6.0 mph9.7 kmh 30.43 in1030.5 mb 0.00 in0.0 mm 0.00 in0.0 mm 0.02 in0.5 mm
05:05 PM 37.2°F2.9°C 36.1°F2.3°C 96% 1.0 mph WSW1.6 kmh WSW 8.0 mph12.9 kmh 30.43 in1030.5 mb 0.00 in0.0 mm 0.00 in0.0 mm 0.02 in0.5 mm
05:10 PM 37.2°F2.9°C 36.3°F2.4°C 96% 1.0 mph WSW1.6 kmh WSW 9.0 mph14.5 kmh 30.43 in1030.5 mb 0.00 in0.0 mm 0.00 in0.0 mm 0.02 in0.5 mm
05:15 PM 37.6°F3.1°C 36.5°F2.5°C 96% 2.0 mph WSW3.2 kmh WSW 9.0 mph14.5 kmh 30.43 in1030.5 mb 0.00 in0.0 mm 0.00 in0.0 mm 0.02 in0.5 mm
05:20 PM 37.6°F3.1°C 36.5°F2.5°C 96% 2.0 mph WSW3.2 kmh WSW 7.0 mph11.3 kmh 30.42 in1030.1 mb 0.00 in0.0 mm 0.00 in0.0 mm 0.02 in0.5 mm
05:25 PM 37.8°F3.2°C 36.7°F2.6°C 96% 2.0 mph WSW3.2 kmh WSW 10.0 mph16.1 kmh 30.42 in1030.1 mb 0.00 in0.0 mm 0.00 in0.0 mm 0.02 in0.5 mm
05:30 PM 37.8°F3.2°C 36.7°F2.6°C 96% 2.0 mph WSW3.2 kmh WSW 10.0 mph16.1 kmh 30.42 in1030.1 mb 0.00 in0.0 mm 0.00 in0.0 mm 0.02 in0.5 mm
05:35 PM 37.9°F3.3°C 37.0°F2.8°C 96% 2.0 mph WSW3.2 kmh WSW 9.0 mph14.5 kmh 30.43 in1030.5 mb 0.00 in0.0 mm 0.00 in0.0 mm 0.02 in0.5 mm
05:40 PM 38.1°F3.4°C 37.0°F2.8°C 96% 2.0 mph WSW3.2 kmh WSW 8.0 mph12.9 kmh 30.43 in1030.5 mb 0.00 in0.0 mm 0.00 in0.0 mm 0.02 in0.5 mm
05:45 PM 38.3°F3.5°C 37.6°F3.1°C 97% 2.0 mph WSW3.2 kmh WSW 6.0 mph9.7 kmh 30.43 in1030.5 mb 0.00 in0.0 mm 0.00 in0.0 mm 0.02 in0.5 mm
05:50 PM 38.5°F3.6°C 37.8°F3.2°C 97% 1.0 mph WSW1.6 kmh WSW 7.0 mph11.3 kmh 30.43 in1030.5 mb 0.00 in0.0 mm 0.00 in0.0 mm 0.02 in0.5 mm
05:55 PM 38.7°F3.7°C 37.8°F3.2°C 97% 1.0 mph W1.6 kmh W 8.0 mph12.9 kmh 30.43 in1030.5 mb 0.00 in0.0 mm 0.00 in0.0 mm 0.02 in0.5 mm
06:00 PM 38.7°F3.7°C 37.9°F3.3°C 97% 2.0 mph WNW3.2 kmh WNW 9.0 mph14.5 kmh 30.44 in1030.8 mb 0.00 in0.0 mm 0.00 in0.0 mm 0.02 in0.5 mm
06:05 PM 38.8°F3.8°C 37.9°F3.3°C 97% 2.0 mph WNW3.2 kmh WNW 9.0 mph14.5 kmh 30.44 in1030.8 mb 0.00 in0.0 mm 0.00 in0.0 mm 0.02 in0.5 mm
06:10 PM 38.8°F3.8°C 38.1°F3.4°C 97% 2.0 mph W3.2 kmh W 10.0 mph16.1 kmh 30.44 in1030.8 mb 0.00 in0.0 mm 0.00 in0.0 mm 0.02 in0.5 mm
06:15 PM 38.8°F3.8°C 38.1°F3.4°C 97% 2.0 mph W3.2 kmh W 10.0 mph16.1 kmh 30.44 in1030.8 mb 0.00 in0.0 mm 0.00 in0.0 mm 0.02 in0.5 mm
06:20 PM 38.8°F3.8°C 38.1°F3.4°C 97% 2.0 mph W3.2 kmh W 9.0 mph14.5 kmh 30.44 in1030.8 mb 0.00 in0.0 mm 0.00 in0.0 mm 0.02 in0.5 mm
06:25 PM 38.8°F3.8°C 38.1°F3.4°C 97% 2.0 mph WNW3.2 kmh WNW 7.0 mph11.3 kmh 30.45 in1031.2 mb 0.00 in0.0 mm 0.00 in0.0 mm 0.02 in0.5 mm
06:30 PM 39.0°F3.9°C 38.3°F3.5°C 97% 2.0 mph WNW3.2 kmh WNW 8.0 mph12.9 kmh 30.45 in1031.2 mb 0.00 in0.0 mm 0.00 in0.0 mm 0.02 in0.5 mm
06:35 PM 39.0°F3.9°C 38.3°F3.5°C 97% 2.0 mph WNW3.2 kmh WNW 8.0 mph12.9 kmh 30.45 in1031.2 mb 0.00 in0.0 mm 0.00 in0.0 mm 0.02 in0.5 mm
06:40 PM 38.8°F3.8°C 38.1°F3.4°C 97% 2.0 mph W3.2 kmh W 7.0 mph11.3 kmh 30.46 in1031.5 mb 0.00 in0.0 mm 0.00 in0.0 mm 0.02 in0.5 mm
06:45 PM 38.8°F3.8°C 38.1°F3.4°C 97% 1.0 mph W1.6 kmh W 8.0 mph12.9 kmh 30.46 in1031.5 mb 0.00 in0.0 mm 0.00 in0.0 mm 0.02 in0.5 mm
06:50 PM 39.0°F3.9°C 38.3°F3.5°C 97% 2.0 mph WNW3.2 kmh WNW 8.0 mph12.9 kmh 30.46 in1031.5 mb 0.00 in0.0 mm 0.00 in0.0 mm 0.02 in0.5 mm
06:55 PM 39.0°F3.9°C 38.3°F3.5°C 97% 1.0 mph WNW1.6 kmh WNW 5.0 mph8.0 kmh 30.47 in1031.8 mb 0.00 in0.0 mm 0.00 in0.0 mm 0.02 in0.5 mm
07:00 PM 39.0°F3.9°C 37.9°F3.3°C 96% 1.0 mph WNW1.6 kmh WNW 5.0 mph8.0 kmh 30.47 in1031.8 mb 0.00 in0.0 mm 0.00 in0.0 mm 0.02 in0.5 mm
07:05 PM 38.8°F3.8°C 37.9°F3.3°C 96% 1.0 mph W1.6 kmh W 5.0 mph8.0 kmh 30.47 in1031.8 mb 0.00 in0.0 mm 0.00 in0.0 mm 0.02 in0.5 mm
07:10 PM 38.8°F3.8°C 37.9°F3.3°C 96% 1.0 mph W1.6 kmh W 5.0 mph8.0 kmh 30.47 in1031.8 mb 0.00 in0.0 mm 0.00 in0.0 mm 0.02 in0.5 mm
07:15 PM 38.8°F3.8°C 37.9°F3.3°C 96% 1.0 mph W1.6 kmh W 6.0 mph9.7 kmh 30.47 in1031.8 mb 0.00 in0.0 mm 0.00 in0.0 mm 0.02 in0.5 mm
07:20 PM 38.8°F3.8°C 37.9°F3.3°C 96% 1.0 mph W1.6 kmh W 6.0 mph9.7 kmh 30.47 in1031.8 mb 0.00 in0.0 mm 0.00 in0.0 mm 0.02 in0.5 mm
07:25 PM 38.8°F3.8°C 37.9°F3.3°C 96% 1.0 mph W1.6 kmh W 4.0 mph6.4 kmh 30.47 in1031.8 mb 0.00 in0.0 mm 0.00 in0.0 mm 0.02 in0.5 mm
07:30 PM 38.8°F3.8°C 37.9°F3.3°C 96% 1.0 mph WSW1.6 kmh WSW 8.0 mph12.9 kmh 30.46 in1031.5 mb 0.00 in0.0 mm 0.00 in0.0 mm 0.02 in0.5 mm
07:35 PM 38.8°F3.8°C 37.9°F3.3°C 96% 2.0 mph WSW3.2 kmh WSW 8.0 mph12.9 kmh 30.46 in1031.5 mb 0.00 in0.0 mm 0.00 in0.0 mm 0.02 in0.5 mm
07:40 PM 38.8°F3.8°C 37.9°F3.3°C 96% 2.0 mph WSW3.2 kmh WSW 6.0 mph9.7 kmh 30.47 in1031.8 mb 0.00 in0.0 mm 0.00 in0.0 mm 0.02 in0.5 mm
07:45 PM 38.8°F3.8°C 37.9°F3.3°C 96% 1.0 mph WSW1.6 kmh WSW 6.0 mph9.7 kmh 30.47 in1031.8 mb 0.00 in0.0 mm 0.00 in0.0 mm 0.02 in0.5 mm
07:50 PM 38.8°F3.8°C 37.9°F3.3°C 96% 1.0 mph WSW1.6 kmh WSW 5.0 mph8.0 kmh 30.47 in1031.8 mb 0.00 in0.0 mm 0.00 in0.0 mm 0.02 in0.5 mm
07:55 PM 39.0°F3.9°C 37.9°F3.3°C 96% 1.0 mph W1.6 kmh W 7.0 mph11.3 kmh 30.47 in1031.8 mb 0.00 in0.0 mm 0.00 in0.0 mm 0.02 in0.5 mm
08:00 PM 39.0°F3.9°C 38.1°F3.4°C 96% 1.0 mph W1.6 kmh W 7.0 mph11.3 kmh 30.47 in1031.8 mb 0.00 in0.0 mm 0.00 in0.0 mm 0.02 in0.5 mm
08:05 PM 39.0°F3.9°C 38.1°F3.4°C 96% 1.0 mph W1.6 kmh W 7.0 mph11.3 kmh 30.47 in1031.8 mb 0.00 in0.0 mm 0.00 in0.0 mm 0.02 in0.5 mm
08:10 PM 39.0°F3.9°C 38.1°F3.4°C 96% 1.0 mph WSW1.6 kmh WSW 5.0 mph8.0 kmh 30.47 in1031.8 mb 0.00 in0.0 mm 0.00 in0.0 mm 0.02 in0.5 mm
08:15 PM 39.0°F3.9°C 38.1°F3.4°C 96% 1.0 mph WSW1.6 kmh WSW 7.0 mph11.3 kmh 30.46 in1031.5 mb 0.00 in0.0 mm 0.00 in0.0 mm 0.02 in0.5 mm
08:20 PM 39.0°F3.9°C 38.1°F3.4°C 96% 2.0 mph WSW3.2 kmh WSW 7.0 mph11.3 kmh 30.47 in1031.8 mb 0.00 in0.0 mm 0.00 in0.0 mm 0.02 in0.5 mm
08:25 PM 39.0°F3.9°C 38.1°F3.4°C 96% 1.0 mph WSW1.6 kmh WSW 6.0 mph9.7 kmh 30.47 in1031.8 mb 0.00 in0.0 mm 0.00 in0.0 mm 0.02 in0.5 mm
08:30 PM 39.2°F4.0°C 38.1°F3.4°C 96% 1.0 mph WSW1.6 kmh WSW 6.0 mph9.7 kmh 30.47 in1031.8 mb 0.00 in0.0 mm 0.00 in0.0 mm 0.02 in0.5 mm
08:35 PM 39.2°F4.0°C 37.9°F3.3°C 95% 1.0 mph W1.6 kmh W 6.0 mph9.7 kmh 30.48 in1032.2 mb 0.00 in0.0 mm 0.00 in0.0 mm 0.02 in0.5 mm
08:40 PM 39.4°F4.1°C 37.9°F3.3°C 95% 1.0 mph W1.6 kmh W 6.0 mph9.7 kmh 30.48 in1032.2 mb 0.00 in0.0 mm 0.00 in0.0 mm 0.02 in0.5 mm
08:45 PM 39.4°F4.1°C 37.9°F3.3°C 95% 1.0 mph WNW1.6 kmh WNW 6.0 mph9.7 kmh 30.48 in1032.2 mb 0.00 in0.0 mm 0.00 in0.0 mm 0.02 in0.5 mm
08:50 PM 39.4°F4.1°C 38.1°F3.4°C 95% Calm Calm 4.0 mph6.4 kmh 30.48 in1032.2 mb 0.00 in0.0 mm 0.00 in0.0 mm 0.02 in0.5 mm
08:55 PM 39.4°F4.1°C 38.1°F3.4°C 95% Calm Calm 4.0 mph6.4 kmh 30.48 in1032.2 mb 0.00 in0.0 mm 0.00 in0.0 mm 0.02 in0.5 mm
09:00 PM 39.4°F4.1°C 38.1°F3.4°C 95% 1.0 mph W1.6 kmh W 5.0 mph8.0 kmh 30.48 in1032.2 mb 0.00 in0.0 mm 0.00 in0.0 mm 0.02 in0.5 mm
09:05 PM 39.6°F4.2°C 38.1°F3.4°C 95% 1.0 mph W1.6 kmh W 5.0 mph8.0 kmh 30.48 in1032.2 mb 0.00 in0.0 mm 0.00 in0.0 mm 0.02 in0.5 mm
09:10 PM 39.6°F4.2°C 38.1°F3.4°C 95% 1.0 mph WNW1.6 kmh WNW 5.0 mph8.0 kmh 30.48 in1032.2 mb 0.00 in0.0 mm 0.00 in0.0 mm 0.02 in0.5 mm
09:15 PM 39.6°F4.2°C 38.3°F3.5°C 95% 1.0 mph WSW1.6 kmh WSW 3.0 mph4.8 kmh 30.48 in1032.2 mb 0.00 in0.0 mm 0.00 in0.0 mm 0.02 in0.5 mm
09:20 PM 39.7°F4.3°C 38.3°F3.5°C 95% 1.0 mph W1.6 kmh W 9.0 mph14.5 kmh 30.48 in1032.2 mb 0.00 in0.0 mm 0.00 in0.0 mm 0.02 in0.5 mm
09:25 PM 39.7°F4.3°C 38.3°F3.5°C 95% 1.0 mph WNW1.6 kmh WNW 9.0 mph14.5 kmh 30.48 in1032.2 mb 0.00 in0.0 mm 0.00 in0.0 mm 0.02 in0.5 mm
09:30 PM 39.7°F4.3°C 38.3°F3.5°C 94% 1.0 mph WNW1.6 kmh WNW 6.0 mph9.7 kmh 30.48 in1032.2 mb 0.00 in0.0 mm 0.00 in0.0 mm 0.02 in0.5 mm
09:35 PM 39.7°F4.3°C 38.3°F3.5°C 94% 1.0 mph WSW1.6 kmh WSW 6.0 mph9.7 kmh 30.48 in1032.2 mb 0.00 in0.0 mm 0.00 in0.0 mm 0.02 in0.5 mm
09:40 PM 39.7°F4.3°C 38.3°F3.5°C 94% 1.0 mph W1.6 kmh W 5.0 mph8.0 kmh 30.48 in1032.2 mb 0.00 in0.0 mm 0.00 in0.0 mm 0.02 in0.5 mm
09:45 PM 39.7°F4.3°C 38.3°F3.5°C 94% 1.0 mph WNW1.6 kmh WNW 5.0 mph8.0 kmh 30.48 in1032.2 mb 0.00 in0.0 mm 0.00 in0.0 mm 0.02 in0.5 mm
09:50 PM 39.9°F4.4°C 38.3°F3.5°C 94% 1.0 mph WNW1.6 kmh WNW 6.0 mph9.7 kmh 30.48 in1032.2 mb 0.00 in0.0 mm 0.00 in0.0 mm 0.02 in0.5 mm
09:55 PM 39.9°F4.4°C 38.3°F3.5°C 94% 1.0 mph WNW1.6 kmh WNW 8.0 mph12.9 kmh 30.48 in1032.2 mb 0.00 in0.0 mm 0.00 in0.0 mm 0.02 in0.5 mm
10:00 PM 39.9°F4.4°C 38.3°F3.5°C 94% 1.0 mph W1.6 kmh W 8.0 mph12.9 kmh 30.48 in1032.2 mb 0.00 in0.0 mm 0.00 in0.0 mm 0.02 in0.5 mm
10:05 PM 39.9°F4.4°C 38.3°F3.5°C 94% 1.0 mph W1.6 kmh W 8.0 mph12.9 kmh 30.48 in1032.2 mb 0.00 in0.0 mm 0.00 in0.0 mm 0.02 in0.5 mm
10:10 PM 39.7°F4.3°C 38.3°F3.5°C 94% 1.0 mph WSW1.6 kmh WSW 5.0 mph8.0 kmh 30.48 in1032.2 mb 0.00 in0.0 mm 0.00 in0.0 mm 0.02 in0.5 mm
10:15 PM 39.7°F4.3°C 38.3°F3.5°C 94% 1.0 mph WNW1.6 kmh WNW 4.0 mph6.4 kmh 30.48 in1032.2 mb 0.00 in0.0 mm 0.00 in0.0 mm 0.02 in0.5 mm
10:20 PM 39.7°F4.3°C 38.3°F3.5°C 94% 1.0 mph W1.6 kmh W 4.0 mph6.4 kmh 30.48 in1032.2 mb 0.00 in0.0 mm 0.00 in0.0 mm 0.02 in0.5 mm
10:25 PM 39.7°F4.3°C 38.3°F3.5°C 94% 1.0 mph W1.6 kmh W 4.0 mph6.4 kmh 30.48 in1032.2 mb 0.00 in0.0 mm 0.00 in0.0 mm 0.02 in0.5 mm
10:30 PM 39.7°F4.3°C 38.3°F3.5°C 94% 1.0 mph W1.6 kmh W 6.0 mph9.7 kmh 30.48 in1032.2 mb 0.00 in0.0 mm 0.00 in0.0 mm 0.02 in0.5 mm
10:35 PM 39.9°F4.4°C 38.3°F3.5°C 94% 1.0 mph W1.6 kmh W 6.0 mph9.7 kmh 30.48 in1032.2 mb 0.00 in0.0 mm 0.00 in0.0 mm 0.02 in0.5 mm
10:40 PM 39.9°F4.4°C 38.3°F3.5°C 94% 1.0 mph WNW1.6 kmh WNW 6.0 mph9.7 kmh 30.48 in1032.2 mb 0.00 in0.0 mm 0.00 in0.0 mm 0.02 in0.5 mm
10:45 PM 39.9°F4.4°C 38.3°F3.5°C 94% 1.0 mph WNW1.6 kmh WNW 6.0 mph9.7 kmh 30.48 in1032.2 mb 0.00 in0.0 mm 0.00 in0.0 mm 0.02 in0.5 mm
10:50 PM 39.9°F4.4°C 38.3°F3.5°C 94% 1.0 mph WNW1.6 kmh WNW 5.0 mph8.0 kmh 30.48 in1032.2 mb 0.00 in0.0 mm 0.00 in0.0 mm 0.02 in0.5 mm
10:55 PM 39.9°F4.4°C 38.5°F3.6°C 94% 1.0 mph W1.6 kmh W 5.0 mph8.0 kmh 30.48 in1032.2 mb 0.00 in0.0 mm 0.00 in0.0 mm 0.02 in0.5 mm
11:00 PM 39.9°F4.4°C 38.3°F3.5°C 94% 1.0 mph W1.6 kmh W 4.0 mph6.4 kmh 30.48 in1032.2 mb 0.00 in0.0 mm 0.00 in0.0 mm 0.02 in0.5 mm
11:05 PM 39.9°F4.4°C 38.5°F3.6°C 94% 1.0 mph NW1.6 kmh NW 5.0 mph8.0 kmh 30.49 in1032.5 mb 0.00 in0.0 mm 0.00 in0.0 mm 0.02 in0.5 mm
11:10 PM 39.9°F4.4°C 38.5°F3.6°C 94% 1.0 mph NW1.6 kmh NW 6.0 mph9.7 kmh 30.49 in1032.5 mb 0.00 in0.0 mm 0.00 in0.0 mm 0.02 in0.5 mm
11:15 PM 40.1°F4.5°C 38.5°F3.6°C 94% 1.0 mph WNW1.6 kmh WNW 6.0 mph9.7 kmh 30.49 in1032.5 mb 0.00 in0.0 mm 0.00 in0.0 mm 0.02 in0.5 mm
11:20 PM 40.1°F4.5°C 38.3°F3.5°C 93% 1.0 mph WNW1.6 kmh WNW 5.0 mph8.0 kmh 30.49 in1032.5 mb 0.00 in0.0 mm 0.00 in0.0 mm 0.02 in0.5 mm
11:25 PM 40.3°F4.6°C 38.3°F3.5°C 93% 1.0 mph W1.6 kmh W 6.0 mph9.7 kmh 30.49 in1032.5 mb 0.00 in0.0 mm 0.00 in0.0 mm 0.02 in0.5 mm
11:30 PM 40.3°F4.6°C 38.3°F3.5°C 93% 1.0 mph W1.6 kmh W 6.0 mph9.7 kmh 30.49 in1032.5 mb 0.00 in0.0 mm 0.00 in0.0 mm 0.02 in0.5 mm
11:35 PM 40.3°F4.6°C 38.5°F3.6°C 93% 1.0 mph W1.6 kmh W 4.0 mph6.4 kmh 30.49 in1032.5 mb 0.00 in0.0 mm 0.00 in0.0 mm 0.02 in0.5 mm
11:40 PM 40.3°F4.6°C 38.5°F3.6°C 93% 1.0 mph W1.6 kmh W 4.0 mph6.4 kmh 30.49 in1032.5 mb 0.00 in0.0 mm 0.00 in0.0 mm 0.02 in0.5 mm
11:45 PM 40.3°F4.6°C 38.3°F3.5°C 93% Calm Calm 2.0 mph3.2 kmh 30.49 in1032.5 mb 0.00 in0.0 mm 0.00 in0.0 mm 0.02 in0.5 mm
11:50 PM 40.3°F4.6°C 38.5°F3.6°C 93% Calm Calm 4.0 mph6.4 kmh 30.49 in1032.5 mb 0.00 in0.0 mm 0.00 in0.0 mm 0.02 in0.5 mm
11:55 PM 40.3°F4.6°C 38.5°F3.6°C 93% Calm Calm 4.0 mph6.4 kmh 30.49 in1032.5 mb 0.00 in0.0 mm 0.00 in0.0 mm 0.02 in0.5 mm